Time;durP1;ratioP1;P1;durP2;ratioP2;P2;SDS_P1;SDS_P2;PMS_P1;PMS_P2;Temp;Humidity;BMP_temperature;BMP_pressure;BME280_temperature;BME280_humidity;BME280_pressure;Samples;Min_cycle;Max_cycle;Signal;HPM_P1;HPM_P2
2023/08/17 00:00:29;;;;;;;0.30;0.30;;;15.50;99.90;;;;;;5027053;28;20052;-74
2023/08/17 00:06:35;;;;;;;0.40;0.40;;;15.50;99.90;;;;;;5705876;22;20618;-79
2023/08/17 00:09:01;;;;;;;0.40;0.40;;;15.50;99.90;;;;;;5033725;28;20055;-79
2023/08/17 00:11:27;;;;;;;0.82;0.82;;;15.50;99.90;;;;;;5049931;28;20485;-79
2023/08/17 00:13:52;;;;;;;0.30;0.30;;;15.60;99.90;;;;;;5034377;28;20045;-79
2023/08/17 00:16:18;;;;;;;0.32;0.32;;;15.60;99.90;;;;;;5048680;28;20131;-79
2023/08/17 00:18:44;;;;;;;0.82;0.82;;;15.50;99.90;;;;;;5045140;28;20057;-80
2023/08/17 00:21:09;;;;;;;0.30;0.30;;;15.50;99.90;;;;;;5044075;28;20049;-79
2023/08/17 00:23:35;;;;;;;0.50;0.50;;;15.50;99.90;;;;;;5032782;28;20098;-79
2023/08/17 00:26:01;;;;;;;0.73;0.57;;;15.50;99.90;;;;;;5046474;28;20792;-79
2023/08/17 00:28:27;;;;;;;0.38;0.38;;;15.50;99.90;;;;;;5049584;28;20107;-79
2023/08/17 00:30:53;;;;;;;0.35;0.35;;;15.50;99.90;;;;;;5029132;28;20456;-79
2023/08/17 00:33:19;;;;;;;0.35;0.35;;;15.50;99.90;;;;;;5049067;28;20119;-80
2023/08/17 00:35:45;;;;;;;1.08;0.90;;;15.50;99.90;;;;;;5045856;28;20509;-79
2023/08/17 00:38:11;;;;;;;0.50;0.50;;;15.50;99.90;;;;;;5024645;28;20040;-79
2023/08/17 00:40:37;;;;;;;0.57;0.57;;;15.40;99.90;;;;;;5049717;28;20048;-79
2023/08/17 00:43:05;;;;;;;5.95;0.82;;;15.40;99.90;;;;;;5050548;28;20097;-79
2023/08/17 00:45:31;;;;;;;0.43;0.43;;;15.40;99.90;;;;;;5047760;28;20045;-79
2023/08/17 00:47:58;;;;;;;0.70;0.70;;;15.40;99.90;;;;;;5047462;28;20140;-79
2023/08/17 00:50:25;;;;;;;0.47;0.47;;;15.40;99.90;;;;;;5042013;28;20059;-79
2023/08/17 00:52:52;;;;;;;0.43;0.43;;;15.30;99.90;;;;;;5040070;28;20045;-79
2023/08/17 00:55:18;;;;;;;0.40;0.40;;;15.30;99.90;;;;;;5046755;28;20037;-79
2023/08/17 00:57:44;;;;;;;0.50;0.50;;;15.30;99.90;;;;;;5037963;28;20037;-79
2023/08/17 01:00:13;;;;;;;0.47;0.47;;;15.20;99.90;;;;;;5046316;28;20102;-80
2023/08/17 01:02:42;;;;;;;0.60;0.60;;;15.20;99.90;;;;;;5048971;28;20123;-79
2023/08/17 01:05:08;;;;;;;0.30;0.30;;;15.20;99.90;;;;;;5040984;28;20040;-79
2023/08/17 01:07:34;;;;;;;0.50;0.50;;;15.10;99.90;;;;;;5042436;28;20067;-79
2023/08/17 01:10:01;;;;;;;1.23;1.13;;;15.10;99.90;;;;;;5064016;28;20102;-79
2023/08/17 01:12:32;;;;;;;0.73;0.73;;;15.10;99.90;;;;;;5063316;28;20384;-79
2023/08/17 01:15:14;;;;;;;0.40;0.40;;;15.10;99.90;;;;;;5061289;28;20393;-79
2023/08/17 01:17:47;;;;;;;1.13;0.95;;;15.00;99.90;;;;;;5062767;28;20053;-79
2023/08/17 01:20:15;;;;;;;0.55;0.55;;;15.00;99.90;;;;;;5058247;28;20044;-80
2023/08/17 01:22:42;;;;;;;;;;;15.00;99.90;;;;;;5062530;28;20150;-79
2023/08/17 01:25:08;;;;;;;0.50;0.50;;;15.10;99.90;;;;;;5065964;28;19924;-79
2023/08/17 01:27:45;;;;;;;0.43;0.43;;;15.10;99.90;;;;;;5061273;28;20055;-79
2023/08/17 01:30:14;;;;;;;1.38;1.27;;;15.10;99.90;;;;;;5061919;28;20083;-79
2023/08/17 01:33:09;;;;;;;0.45;0.45;;;15.10;99.90;;;;;;5060154;28;20045;-79
2023/08/17 01:35:42;;;;;;;0.50;0.50;;;15.10;99.90;;;;;;5051446;28;20486;-80
2023/08/17 01:38:15;;;;;;;0.80;0.80;;;15.10;99.90;;;;;;5064514;28;20032;-79
2023/08/17 01:40:42;;;;;;;0.30;0.30;;;15.20;99.90;;;;;;5060952;28;20451;-79
2023/08/17 01:43:09;;;;;;;0.38;0.38;;;15.20;99.90;;;;;;5065812;28;20049;-78
2023/08/17 01:45:35;;;;;;;0.55;0.55;;;15.20;99.90;;;;;;5062793;28;20591;-79
2023/08/17 01:48:01;;;;;;;0.88;0.88;;;15.20;99.90;;;;;;5060632;28;20052;-79
2023/08/17 01:50:27;;;;;;;0.35;0.35;;;15.20;99.90;;;;;;5063191;28;20128;-79
2023/08/17 01:52:52;;;;;;;0.73;0.73;;;15.20;99.90;;;;;;5065560;28;20055;-79
2023/08/17 01:55:22;;;;;;;0.47;0.47;;;15.30;99.90;;;;;;5063839;28;20033;-79
2023/08/17 01:57:47;;;;;;;0.50;0.50;;;15.30;99.90;;;;;;5064978;28;20105;-79
2023/08/17 02:00:14;;;;;;;0.70;0.70;;;15.30;99.90;;;;;;5062712;28;20053;-79
2023/08/17 02:02:40;;;;;;;0.73;0.55;;;15.30;99.90;;;;;;5067751;28;20194;-79
2023/08/17 02:05:07;;;;;;;0.50;0.50;;;15.30;99.90;;;;;;5063981;28;20037;-80
2023/08/17 02:07:33;;;;;;;2.35;1.27;;;15.30;99.90;;;;;;5066249;28;20120;-79
2023/08/17 02:09:58;;;;;;;3.30;1.23;;;15.30;99.90;;;;;;5058772;28;20418;-80
2023/08/17 02:12:24;;;;;;;0.88;0.88;;;15.40;99.90;;;;;;5064824;28;20056;-79
2023/08/17 02:14:50;;;;;;;0.32;0.32;;;15.40;99.90;;;;;;5063035;28;20049;-80
2023/08/17 02:17:16;;;;;;;0.70;0.70;;;15.40;99.90;;;;;;5068202;28;20067;-80
2023/08/17 02:19:43;;;;;;;1.08;0.98;;;15.50;99.90;;;;;;5063134;28;20418;-80
2023/08/17 02:22:09;;;;;;;1.48;1.38;;;15.50;99.90;;;;;;5057477;28;20371;-79
2023/08/17 02:24:34;;;;;;;0.50;0.50;;;15.50;99.90;;;;;;5059673;28;20097;-78
2023/08/17 02:27:00;;;;;;;0.73;0.73;;;15.50;99.90;;;;;;5064367;28;20048;-80
2023/08/17 02:29:26;;;;;;;0.63;0.63;;;15.50;99.90;;;;;;5044232;28;20402;-80
2023/08/17 02:31:51;;;;;;;0.88;0.88;;;15.60;99.90;;;;;;5063478;28;20088;-80
2023/08/17 02:34:17;;;;;;;0.68;0.68;;;15.50;99.90;;;;;;5065908;28;20045;-80
2023/08/17 02:36:43;;;;;;;0.77;0.77;;;15.60;99.90;;;;;;5068213;28;20052;-79
2023/08/17 02:39:08;;;;;;;1.08;1.08;;;15.60;99.90;;;;;;5065147;28;20080;-79
2023/08/17 02:41:34;;;;;;;0.85;0.85;;;15.60;99.90;;;;;;5060326;28;20119;-79
2023/08/17 02:44:01;;;;;;;0.93;0.93;;;15.60;99.90;;;;;;5067271;28;20446;-80
2023/08/17 02:46:27;;;;;;;0.70;0.70;;;15.60;99.90;;;;;;5065960;28;20148;-79
2023/08/17 02:48:53;;;;;;;0.45;0.45;;;15.50;99.90;;;;;;5066349;28;20136;-79
2023/08/17 02:51:18;;;;;;;0.68;0.68;;;15.60;99.90;;;;;;5058742;28;20498;-79
2023/08/17 02:53:44;;;;;;;0.57;0.57;;;15.60;99.90;;;;;;5068812;28;20057;-80
2023/08/17 02:56:11;;;;;;;0.70;0.65;;;15.60;99.90;;;;;;5062761;28;20636;-80
2023/08/17 02:58:40;;;;;;;0.57;0.57;;;15.60;99.90;;;;;;5062556;28;20128;-79
2023/08/17 03:01:09;;;;;;;0.70;0.70;;;15.60;99.90;;;;;;5068227;28;20087;-79
2023/08/17 03:03:35;;;;;;;1.15;0.75;;;15.50;99.90;;;;;;5062736;28;20049;-79
2023/08/17 03:06:02;;;;;;;2.88;1.00;;;15.60;99.90;;;;;;5046486;28;20644;-79
2023/08/17 03:08:28;;;;;;;1.75;0.82;;;15.60;99.90;;;;;;5060876;28;20103;-80
2023/08/17 03:10:53;;;;;;;0.73;0.73;;;15.60;99.90;;;;;;5064509;28;20056;-79
2023/08/17 03:13:19;;;;;;;0.50;0.50;;;15.60;99.90;;;;;;5050888;28;20094;-80
2023/08/17 03:15:46;;;;;;;0.68;0.68;;;15.60;99.90;;;;;;5063417;28;20497;-80
2023/08/17 03:18:11;;;;;;;0.55;0.55;;;15.60;99.90;;;;;;5062142;28;20888;-79
2023/08/17 03:20:37;;;;;;;0.70;0.70;;;15.60;99.90;;;;;;5064279;28;20049;-80
2023/08/17 03:23:06;;;;;;;0.40;0.40;;;15.60;99.90;;;;;;5059850;28;20037;-81
2023/08/17 03:25:32;;;;;;;0.85;0.85;;;15.60;99.90;;;;;;5066423;28;20052;-80
2023/08/17 03:28:00;;;;;;;0.60;0.60;;;15.60;99.90;;;;;;5068111;28;20048;-81
2023/08/17 03:30:26;;;;;;;0.70;0.70;;;15.60;99.90;;;;;;5062443;28;20084;-80
2023/08/17 03:32:52;;;;;;;0.65;0.65;;;15.60;99.90;;;;;;5063064;28;20120;-80
2023/08/17 03:35:17;;;;;;;0.57;0.55;;;15.60;99.90;;;;;;5067392;28;20158;-80
2023/08/17 03:37:43;;;;;;;1.05;0.43;;;15.60;99.90;;;;;;5067546;28;20051;-80
2023/08/17 03:40:09;;;;;;;0.95;0.95;;;15.60;99.90;;;;;;5067717;28;20497;-80
2023/08/17 03:42:35;;;;;;;0.68;0.68;;;15.60;99.90;;;;;;5065646;28;20418;-79
2023/08/17 03:45:01;;;;;;;0.70;0.70;;;15.60;99.90;;;;;;5046762;28;20094;-79
2023/08/17 03:47:26;;;;;;;0.60;0.60;;;15.60;99.90;;;;;;5060407;28;20041;-80
2023/08/17 03:49:52;;;;;;;0.57;0.57;;;15.60;99.90;;;;;;5062003;28;20043;-79
2023/08/17 03:52:18;;;;;;;1.20;1.02;;;15.70;99.90;;;;;;5065438;28;20089;-79
2023/08/17 03:54:43;;;;;;;0.95;0.95;;;15.60;99.90;;;;;;5067436;28;20167;-79
2023/08/17 03:57:09;;;;;;;0.65;0.65;;;15.70;99.90;;;;;;5060597;28;20036;-79
2023/08/17 03:59:35;;;;;;;0.80;0.80;;;15.70;99.90;;;;;;5064668;28;20045;-79
2023/08/17 04:02:00;;;;;;;0.85;0.85;;;15.70;99.90;;;;;;5065699;28;20090;-80
2023/08/17 04:04:27;;;;;;;0.50;0.50;;;15.70;99.90;;;;;;5051719;28;20048;-80
2023/08/17 04:06:53;;;;;;;0.60;0.60;;;15.70;99.90;;;;;;5065803;28;20413;-80
2023/08/17 04:09:18;;;;;;;0.50;0.50;;;15.70;99.90;;;;;;5069331;28;20094;-79
2023/08/17 04:11:44;;;;;;;0.73;0.73;;;15.70;99.90;;;;;;5066555;28;20501;-79
2023/08/17 04:14:10;;;;;;;0.50;0.50;;;15.70;99.90;;;;;;5066471;28;20040;-79
2023/08/17 04:16:36;;;;;;;0.70;0.70;;;15.80;99.90;;;;;;5061012;28;20094;-80
2023/08/17 04:19:01;;;;;;;0.57;0.57;;;15.70;99.90;;;;;;5056769;28;20052;-79
2023/08/17 04:21:27;;;;;;;0.77;0.77;;;15.80;99.90;;;;;;5062848;28;20067;-80
2023/08/17 04:23:53;;;;;;;0.45;0.45;;;15.80;99.90;;;;;;5058172;28;20081;-79
2023/08/17 04:26:18;;;;;;;0.98;0.80;;;15.70;99.90;;;;;;5065597;28;20186;-79
2023/08/17 04:28:44;;;;;;;1.10;0.85;;;15.80;99.90;;;;;;5050130;28;20048;-80
2023/08/17 04:31:10;;;;;;;0.75;0.75;;;15.80;99.90;;;;;;5064840;28;20037;-79
2023/08/17 04:33:35;;;;;;;0.85;0.85;;;15.80;99.90;;;;;;5064792;28;20041;-79
2023/08/17 04:36:01;;;;;;;0.70;0.70;;;15.70;99.90;;;;;;5063096;28;20053;-80
2023/08/17 04:38:27;;;;;;;0.70;0.70;;;15.80;99.90;;;;;;5065090;28;20131;-79
2023/08/17 04:40:53;;;;;;;0.70;0.70;;;15.80;99.90;;;;;;5066025;28;20063;-80
2023/08/17 04:43:18;;;;;;;0.98;0.98;;;15.80;99.90;;;;;;5066068;28;20045;-79
2023/08/17 04:45:47;;;;;;;0.60;0.60;;;15.80;99.90;;;;;;5065270;28;20121;-80
2023/08/17 04:48:13;;;;;;;0.65;0.65;;;15.80;99.90;;;;;;5063574;28;20514;-79
2023/08/17 04:50:39;;;;;;;1.05;1.05;;;15.90;99.90;;;;;;5057841;28;20178;-79
2023/08/17 04:53:05;;;;;;;1.13;0.85;;;15.90;99.90;;;;;;5058594;28;20395;-79
2023/08/17 04:55:31;;;;;;;0.47;0.47;;;15.90;99.90;;;;;;5062228;28;20109;-79
2023/08/17 04:57:57;;;;;;;0.50;0.50;;;15.90;99.90;;;;;;5062387;28;20084;-79
2023/08/17 05:00:28;;;;;;;0.73;0.73;;;15.90;99.90;;;;;;5060838;28;20100;-79
2023/08/17 05:02:57;;;;;;;0.40;0.40;;;15.90;99.90;;;;;;5063389;28;20461;-80
2023/08/17 05:05:23;;;;;;;1.48;1.15;;;15.90;99.90;;;;;;5066353;28;20040;-80
2023/08/17 05:07:50;;;;;;;1.48;1.42;;;15.90;99.90;;;;;;5061529;28;20067;-81
2023/08/17 05:10:15;;;;;;;0.60;0.60;;;15.90;99.90;;;;;;5065183;28;20127;-79
2023/08/17 05:12:41;;;;;;;0.55;0.55;;;15.90;99.90;;;;;;5064240;28;20120;-81
2023/08/17 05:15:07;;;;;;;0.60;0.60;;;15.90;99.90;;;;;;5059629;28;20111;-80
2023/08/17 05:17:33;;;;;;;1.23;1.17;;;15.90;99.90;;;;;;5056769;28;20045;-79
2023/08/17 05:19:58;;;;;;;0.70;0.70;;;15.90;99.90;;;;;;5064299;28;20051;-80
2023/08/17 05:22:24;;;;;;;0.85;0.85;;;15.90;99.90;;;;;;5062276;28;20406;-80
2023/08/17 05:24:50;;;;;;;0.90;0.63;;;15.90;99.90;;;;;;5062160;28;20068;-80
2023/08/17 05:27:15;;;;;;;0.35;0.35;;;15.90;99.90;;;;;;5056370;28;20048;-80
2023/08/17 05:29:41;;;;;;;0.52;0.52;;;15.80;99.90;;;;;;5060845;28;20068;-80
2023/08/17 05:32:07;;;;;;;0.60;0.60;;;15.90;99.90;;;;;;5048886;28;20037;-80
2023/08/17 05:34:32;;;;;;;0.80;0.80;;;15.90;99.90;;;;;;5068235;28;20098;-80
2023/08/17 05:36:58;;;;;;;0.80;0.80;;;15.90;99.90;;;;;;5064079;28;20055;-80
2023/08/17 05:39:24;;;;;;;0.60;0.60;;;15.90;99.90;;;;;;5066652;28;20045;-80
2023/08/17 05:41:49;;;;;;;0.75;0.75;;;15.90;99.90;;;;;;5064782;28;20536;-80
2023/08/17 05:44:15;;;;;;;0.40;0.40;;;15.90;99.90;;;;;;5068287;28;20049;-79
2023/08/17 05:46:40;;;;;;;1.33;1.08;;;15.90;99.90;;;;;;5068359;28;20533;-80
2023/08/17 05:49:06;;;;;;;1.08;1.08;;;15.90;99.90;;;;;;5062579;28;20057;-80
2023/08/17 05:51:32;;;;;;;0.50;0.50;;;16.00;99.90;;;;;;5063951;28;20045;-80
2023/08/17 05:53:58;;;;;;;0.93;0.90;;;15.90;99.90;;;;;;5069593;28;20032;-80
2023/08/17 05:56:24;;;;;;;0.95;0.95;;;16.00;99.90;;;;;;5062114;28;20049;-80
2023/08/17 05:58:49;;;;;;;0.40;0.40;;;16.00;99.90;;;;;;5065360;28;20044;-80
2023/08/17 06:01:15;;;;;;;0.70;0.65;;;16.00;99.90;;;;;;5063378;28;20044;-80
2023/08/17 06:03:41;;;;;;;0.93;0.93;;;16.00;99.90;;;;;;5065739;28;20045;-81
2023/08/17 06:06:06;;;;;;;1.38;1.27;;;16.00;99.90;;;;;;5068229;28;20049;-80
2023/08/17 06:08:32;;;;;;;1.08;1.08;;;16.00;99.90;;;;;;5052522;28;20060;-79
2023/08/17 06:10:58;;;;;;;0.50;0.50;;;16.10;99.90;;;;;;5045018;28;20049;-79
2023/08/17 06:13:24;;;;;;;2.25;1.15;;;16.10;99.90;;;;;;5046179;28;20494;-80
2023/08/17 06:15:50;;;;;;;0.70;0.70;;;16.10;99.90;;;;;;5041650;28;20049;-80
2023/08/17 06:18:16;;;;;;;1.02;0.80;;;16.10;99.90;;;;;;5049279;28;20505;-79
2023/08/17 06:20:42;;;;;;;0.40;0.40;;;16.20;99.90;;;;;;5050026;28;20056;-80
2023/08/17 06:23:08;;;;;;;0.57;0.57;;;16.20;99.90;;;;;;5050340;28;20497;-79
2023/08/17 06:25:34;;;;;;;3.40;1.00;;;16.20;99.90;;;;;;5045424;28;20102;-80
2023/08/17 06:28:01;;;;;;;0.75;0.75;;;16.20;99.90;;;;;;5051009;28;20093;-80
2023/08/17 06:30:27;;;;;;;1.05;0.80;;;16.20;99.90;;;;;;5050751;28;20541;-80
2023/08/17 06:32:53;;;;;;;0.60;0.60;;;16.20;99.90;;;;;;5044357;28;20106;-82
2023/08/17 06:35:19;;;;;;;0.60;0.60;;;16.30;99.90;;;;;;5050006;28;20117;-80
2023/08/17 06:37:44;;;;;;;0.55;0.55;;;16.30;99.90;;;;;;5038559;28;20056;-81
2023/08/17 06:40:10;;;;;;;0.70;0.70;;;16.30;99.90;;;;;;5047451;28;20047;-80
2023/08/17 06:42:36;;;;;;;0.70;0.70;;;16.30;99.90;;;;;;5050923;28;20102;-80
2023/08/17 06:45:03;;;;;;;0.95;0.95;;;16.40;99.90;;;;;;5039425;28;20428;-79
2023/08/17 06:47:28;;;;;;;0.38;0.38;;;16.40;99.90;;;;;;5032075;28;20394;-79
2023/08/17 06:49:55;;;;;;;0.68;0.68;;;16.40;99.90;;;;;;5049280;28;20055;-77
2023/08/17 06:52:20;;;;;;;0.30;0.30;;;16.50;99.90;;;;;;5048879;28;20036;-79
2023/08/17 06:54:46;;;;;;;1.00;1.00;;;16.50;99.90;;;;;;5049348;28;20415;-81
2023/08/17 06:57:12;;;;;;;0.60;0.60;;;16.50;99.90;;;;;;5048796;28;20147;-80
2023/08/17 06:59:38;;;;;;;0.70;0.70;;;16.60;99.90;;;;;;5051472;28;20453;-80
2023/08/17 07:02:04;;;;;;;0.75;0.75;;;16.60;99.90;;;;;;5045097;28;20076;-79
2023/08/17 07:04:29;;;;;;;0.73;0.73;;;16.60;99.90;;;;;;5062411;28;20062;-80
2023/08/17 07:06:55;;;;;;;0.40;0.40;;;16.70;99.90;;;;;;5045665;28;20106;-80
2023/08/17 07:09:21;;;;;;;0.73;0.73;;;16.70;99.90;;;;;;5048301;28;20448;-79
2023/08/17 07:11:46;;;;;;;0.30;0.30;;;16.70;99.90;;;;;;5047168;28;20060;-80
2023/08/17 07:14:12;;;;;;;0.65;0.65;;;16.80;99.90;;;;;;5049969;28;20049;-80
2023/08/17 07:16:38;;;;;;;0.63;0.63;;;16.80;99.90;;;;;;5050944;28;20473;-80
2023/08/17 07:19:04;;;;;;;0.65;0.65;;;16.80;99.90;;;;;;5046535;28;20048;-79
2023/08/17 07:21:29;;;;;;;0.80;0.80;;;16.80;99.90;;;;;;5044083;28;20083;-80
2023/08/17 07:23:55;;;;;;;0.50;0.50;;;16.90;99.90;;;;;;5047867;28;20087;-80
2023/08/17 07:26:22;;;;;;;1.10;1.10;;;16.90;99.90;;;;;;5044091;28;20090;-80
2023/08/17 07:28:49;;;;;;;0.55;0.55;;;16.90;99.90;;;;;;5052281;28;20106;-80
2023/08/17 07:31:15;;;;;;;0.73;0.73;;;17.00;99.90;;;;;;5049847;28;20057;-80
2023/08/17 07:33:40;;;;;;;0.60;0.60;;;17.00;99.90;;;;;;5050911;28;20044;-81
2023/08/17 07:36:06;;;;;;;0.50;0.50;;;17.10;99.90;;;;;;5044122;28;20071;-79
2023/08/17 07:38:32;;;;;;;0.40;0.40;;;17.20;99.90;;;;;;5032470;28;20059;-81
2023/08/17 07:40:58;;;;;;;5.45;0.88;;;17.30;99.90;;;;;;5050256;28;20140;-81
2023/08/17 07:43:24;;;;;;;0.60;0.60;;;17.30;99.90;;;;;;5032180;28;20251;-80
2023/08/17 07:45:57;;;;;;;0.90;0.80;;;17.30;99.90;;;;;;5046312;28;20044;-80
2023/08/17 07:48:23;;;;;;;0.60;0.60;;;17.30;99.90;;;;;;5068773;28;20055;-81
2023/08/17 07:50:53;;;;;;;0.65;0.65;;;17.30;99.90;;;;;;5050182;28;20040;-80
2023/08/17 07:53:19;;;;;;;0.47;0.47;;;17.30;99.90;;;;;;5050277;28;20097;-81
2023/08/17 07:55:45;;;;;;;0.50;0.50;;;17.30;99.90;;;;;;5048485;28;20417;-80
2023/08/17 07:58:11;;;;;;;0.75;0.75;;;17.30;99.90;;;;;;5049610;28;20041;-81
2023/08/17 08:00:37;;;;;;;0.90;0.60;;;17.50;99.90;;;;;;5049679;28;20052;-81
2023/08/17 08:03:03;;;;;;;0.98;0.95;;;17.50;99.90;;;;;;5050491;28;20059;-81
2023/08/17 08:05:30;;;;;;;0.57;0.57;;;17.50;99.90;;;;;;5047704;28;20049;-81
2023/08/17 08:07:56;;;;;;;0.40;0.40;;;17.60;99.90;;;;;;5059147;28;20064;-81
2023/08/17 08:10:22;;;;;;;0.47;0.47;;;17.60;99.90;;;;;;5066461;28;20058;-80
2023/08/17 08:12:47;;;;;;;0.60;0.60;;;17.60;99.90;;;;;;5068769;28;20045;-81
2023/08/17 08:15:13;;;;;;;0.77;0.63;;;17.50;99.90;;;;;;5069389;28;20044;-81
2023/08/17 08:17:38;;;;;;;0.45;0.45;;;17.50;99.90;;;;;;5070523;28;20401;-81
2023/08/17 08:20:05;;;;;;;0.60;0.60;;;17.50;99.90;;;;;;5071066;28;20044;-80
2023/08/17 08:22:30;;;;;;;2.78;0.90;;;17.50;99.90;;;;;;5063390;28;20076;-82
2023/08/17 08:24:57;;;;;;;0.55;0.55;;;17.50;99.90;;;;;;5062367;28;20043;-81
2023/08/17 08:27:23;;;;;;;0.52;0.52;;;17.50;99.90;;;;;;5074000;28;20512;-81
2023/08/17 08:29:49;;;;;;;5.03;0.63;;;17.60;99.90;;;;;;5053900;28;20043;-81
2023/08/17 08:32:14;;;;;;;0.75;0.75;;;17.60;99.90;;;;;;5070557;28;20097;-81
2023/08/17 08:34:41;;;;;;;0.57;0.57;;;17.60;99.90;;;;;;5064951;28;20051;-80
2023/08/17 08:37:07;;;;;;;0.68;0.68;;;17.70;99.90;;;;;;5064222;28;20489;-81
2023/08/17 08:39:47;;;;;;;0.45;0.45;;;17.70;99.90;;;;;;5066785;28;20048;-80
2023/08/17 08:42:13;;;;;;;0.50;0.50;;;17.70;99.90;;;;;;5068434;28;20040;-81
2023/08/17 08:44:38;;;;;;;0.40;0.40;;;17.70;99.90;;;;;;5068149;28;20047;-81
2023/08/17 08:47:04;;;;;;;2.10;1.48;;;17.70;99.90;;;;;;5051917;28;20058;-80
2023/08/17 08:49:32;;;;;;;0.40;0.40;;;17.80;99.90;;;;;;5070918;28;20577;-80
2023/08/17 08:51:59;;;;;;;0.90;0.90;;;17.80;99.90;;;;;;5068992;28;20044;-80
2023/08/17 08:54:26;;;;;;;0.50;0.50;;;17.80;99.90;;;;;;5073488;28;20048;-80
2023/08/17 08:57:05;;;;;;;0.95;0.85;;;17.80;99.90;;;;;;5063457;28;20078;-81
2023/08/17 08:59:31;;;;;;;1.75;1.10;;;17.80;99.90;;;;;;5060784;28;20052;-80
2023/08/17 09:01:58;;;;;;;0.38;0.38;;;17.90;99.90;;;;;;5062592;28;20044;-82
2023/08/17 09:04:25;;;;;;;1.73;1.27;;;17.90;99.90;;;;;;5078117;28;20256;-81
2023/08/17 09:06:51;;;;;;;0.88;0.88;;;17.90;99.90;;;;;;5067777;28;20294;-80
2023/08/17 09:09:18;;;;;;;0.70;0.70;;;18.00;99.90;;;;;;5050263;28;20414;-81
2023/08/17 09:11:44;;;;;;;0.50;0.50;;;18.00;99.90;;;;;;5046918;28;20045;-81
2023/08/17 09:14:09;;;;;;;0.60;0.60;;;18.00;99.90;;;;;;5043634;28;20540;-82
2023/08/17 09:16:36;;;;;;;0.50;0.50;;;18.00;99.90;;;;;;5044795;28;20040;-81
2023/08/17 09:19:03;;;;;;;0.60;0.60;;;18.00;99.90;;;;;;5049505;28;20040;-81
2023/08/17 09:21:32;;;;;;;0.52;0.52;;;18.10;99.90;;;;;;5027732;28;20044;-81
2023/08/17 09:23:58;;;;;;;0.80;0.80;;;18.20;99.90;;;;;;5039423;28;20155;-80
2023/08/17 09:26:24;;;;;;;0.52;0.52;;;18.20;99.90;;;;;;5042803;28;20128;-82
2023/08/17 09:28:51;;;;;;;1.92;1.75;;;18.20;99.90;;;;;;5047781;28;20321;-81
2023/08/17 09:31:23;;;;;;;0.45;0.45;;;18.20;99.90;;;;;;5042732;28;20044;-81
2023/08/17 09:33:50;;;;;;;0.63;0.63;;;18.20;99.90;;;;;;5032145;28;20049;-81
2023/08/17 09:36:24;;;;;;;0.60;0.60;;;18.20;99.90;;;;;;5046071;28;20443;-81
2023/08/17 09:38:51;;;;;;;0.60;0.60;;;18.40;99.90;;;;;;5049236;28;20151;-81
2023/08/17 09:41:20;;;;;;;0.70;0.70;;;18.40;99.90;;;;;;5050494;28;20113;-81
2023/08/17 09:43:50;;;;;;;0.68;0.68;;;18.50;99.90;;;;;;5049009;28;20051;-81
2023/08/17 09:46:15;;;;;;;1.33;0.75;;;18.70;99.90;;;;;;5047674;28;20044;-81
2023/08/17 09:48:46;;;;;;;1.60;1.17;;;18.70;99.90;;;;;;5047925;28;20037;-81
2023/08/17 09:51:15;;;;;;;0.85;0.85;;;18.80;99.90;;;;;;5044986;28;20052;-81
2023/08/17 09:53:41;;;;;;;0.77;0.77;;;18.80;99.90;;;;;;5045069;28;20056;-81
2023/08/17 09:56:07;;;;;;;0.73;0.73;;;18.90;99.90;;;;;;5046045;28;20875;-81
2023/08/17 09:58:33;;;;;;;1.02;0.95;;;19.00;99.90;;;;;;5040874;28;20048;-76
2023/08/17 10:01:04;;;;;;;2.00;1.10;;;19.10;99.90;;;;;;5047569;28;20048;-77
2023/08/17 10:03:32;;;;;;;12.20;0.73;;;19.20;99.90;;;;;;5068346;28;20658;-78
2023/08/17 10:06:06;;;;;;;0.45;0.45;;;19.30;99.90;;;;;;5044030;28;20055;-78
2023/08/17 10:08:36;;;;;;;1.48;1.38;;;19.30;99.90;;;;;;5071732;28;20064;-79
2023/08/17 10:11:04;;;;;;;0.60;0.60;;;19.30;99.90;;;;;;5041565;28;20669;-81
2023/08/17 10:13:52;;;;;;;3.45;1.55;;;19.30;99.90;;;;;;5047260;28;20136;-80
2023/08/17 10:16:28;;;;;;;;;;;19.20;99.90;;;;;;5046276;28;20413;-81
2023/08/17 10:18:58;;;;;;;0.68;0.68;;;19.10;99.90;;;;;;5043375;28;20008;-81
2023/08/17 10:21:31;;;;;;;0.85;0.73;;;19.00;99.90;;;;;;5048848;28;20115;-80
2023/08/17 10:23:57;;;;;;;0.40;0.40;;;19.00;99.90;;;;;;5066838;28;20051;-81
2023/08/17 10:26:24;;;;;;;1.05;1.05;;;18.90;99.90;;;;;;5048088;28;20040;-82
2023/08/17 10:28:51;;;;;;;0.77;0.77;;;19.00;99.90;;;;;;5047194;28;20061;-81
2023/08/17 10:31:17;;;;;;;0.90;0.90;;;18.90;99.90;;;;;;5052026;28;20083;-82
2023/08/17 10:33:47;;;;;;;0.40;0.40;;;18.90;99.90;;;;;;5054584;28;20073;-81
2023/08/17 10:36:14;;;;;;;0.82;0.82;;;18.80;99.90;;;;;;5048405;28;20084;-80
2023/08/17 10:38:40;;;;;;;0.85;0.85;;;18.80;99.90;;;;;;5050188;28;20048;-81
2023/08/17 10:41:10;;;;;;;0.85;0.85;;;18.80;99.90;;;;;;5047315;28;20037;-81
2023/08/17 10:43:52;;;;;;;1.13;1.08;;;18.80;99.90;;;;;;5052603;28;20072;-81
2023/08/17 10:46:18;;;;;;;1.15;1.08;;;18.80;99.90;;;;;;5031017;28;20048;-82
2023/08/17 10:48:45;;;;;;;1.40;1.35;;;18.80;99.90;;;;;;5054269;28;20139;-81
2023/08/17 10:51:14;;;;;;;4.22;1.88;;;18.80;99.90;;;;;;5050625;28;20049;-81
2023/08/17 10:53:43;;;;;;;0.60;0.60;;;18.70;99.90;;;;;;5052008;28;20151;-81
2023/08/17 10:56:14;;;;;;;1.17;1.08;;;18.70;99.90;;;;;;5052212;28;20059;-81
2023/08/17 10:58:42;;;;;;;1.15;1.15;;;18.70;99.90;;;;;;5057788;28;20048;-81
2023/08/17 11:01:09;;;;;;;0.95;0.95;;;18.80;99.90;;;;;;5052844;28;20048;-81
2023/08/17 11:03:36;;;;;;;1.20;1.17;;;18.70;99.90;;;;;;5035657;28;20040;-81
2023/08/17 11:06:22;;;;;;;1.27;1.17;;;18.70;99.90;;;;;;5051228;28;20111;-81
2023/08/17 11:08:55;;;;;;;1.13;0.75;;;18.70;99.90;;;;;;5063976;28;20167;-81
2023/08/17 11:11:23;;;;;;;2.05;1.85;;;18.70;99.90;;;;;;5068837;28;20040;-82
2023/08/17 11:13:49;;;;;;;0.55;0.55;;;18.70;99.90;;;;;;5068221;28;20052;-81
2023/08/17 11:16:16;;;;;;;0.98;0.95;;;18.80;99.90;;;;;;5071201;28;20093;-81
2023/08/17 11:18:44;;;;;;;0.57;0.57;;;18.90;99.90;;;;;;5062619;28;20078;-81
2023/08/17 11:21:10;;;;;;;1.67;1.58;;;18.90;99.90;;;;;;5067006;28;20508;-82
2023/08/17 11:23:37;;;;;;;1.45;1.35;;;19.00;99.90;;;;;;5064723;28;20071;-81
2023/08/17 11:26:04;;;;;;;0.60;0.60;;;19.10;99.90;;;;;;5069002;28;20044;-82
2023/08/17 11:28:38;;;;;;;1.42;1.35;;;19.10;99.90;;;;;;5067874;28;20048;-81
2023/08/17 11:31:05;;;;;;;1.13;1.00;;;19.00;99.90;;;;;;5064463;28;20036;-81
2023/08/17 11:33:32;;;;;;;0.63;0.63;;;19.10;99.90;;;;;;5066664;28;20052;-81
2023/08/17 11:36:05;;;;;;;0.93;0.77;;;19.10;99.90;;;;;;5068227;28;20492;-80
2023/08/17 11:38:36;;;;;;;0.80;0.80;;;19.20;99.90;;;;;;5065065;28;20133;-81
2023/08/17 11:41:06;;;;;;;1.30;1.27;;;19.30;99.90;;;;;;5068438;28;20051;-81
2023/08/17 11:43:33;;;;;;;1.20;1.20;;;19.30;99.90;;;;;;5066221;28;20040;-82
2023/08/17 11:46:00;;;;;;;1.10;0.82;;;19.50;99.90;;;;;;5064165;28;20056;-81
2023/08/17 11:48:27;;;;;;;1.45;1.42;;;19.50;99.90;;;;;;5067470;28;20125;-81
2023/08/17 11:50:54;;;;;;;0.77;0.77;;;19.50;99.90;;;;;;5049459;28;20048;-81
2023/08/17 11:53:20;;;;;;;1.00;1.00;;;19.40;99.90;;;;;;5067974;28;20125;-81
2023/08/17 11:55:46;;;;;;;1.42;1.33;;;19.30;99.90;;;;;;5061223;28;20037;-82
2023/08/17 11:58:12;;;;;;;2.97;1.48;;;19.30;99.90;;;;;;5063395;28;20043;-82
2023/08/17 12:00:45;;;;;;;1.17;1.08;;;19.20;99.90;;;;;;5068324;28;20043;-81
2023/08/17 12:03:15;;;;;;;0.50;0.50;;;19.20;99.90;;;;;;5066626;28;20036;-81
2023/08/17 12:05:41;;;;;;;0.65;0.65;;;19.40;99.90;;;;;;5080604;28;20051;-81
2023/08/17 12:08:08;;;;;;;1.63;1.52;;;19.50;99.90;;;;;;5038722;28;20055;-82
2023/08/17 12:10:34;;;;;;;1.52;1.42;;;19.60;99.90;;;;;;5055911;28;20075;-81
2023/08/17 12:13:01;;;;;;;0.55;0.55;;;19.60;99.90;;;;;;5047941;28;20819;-82
2023/08/17 12:15:37;;;;;;;1.33;1.27;;;19.60;99.90;;;;;;5056811;28;20036;-82
2023/08/17 12:18:04;;;;;;;0.88;0.88;;;19.70;99.90;;;;;;5056737;28;20811;-81
2023/08/17 12:20:32;;;;;;;1.55;1.48;;;19.70;99.90;;;;;;5045797;28;20033;-81
2023/08/17 12:22:59;;;;;;;1.77;1.67;;;19.60;99.90;;;;;;5031994;28;20490;-82
2023/08/17 12:25:25;;;;;;;2.67;1.00;;;19.60;99.90;;;;;;5049159;28;20139;-81
2023/08/17 12:27:51;;;;;;;2.05;1.95;;;19.60;99.90;;;;;;5047414;28;20560;-81
2023/08/17 12:30:32;;;;;;;1.13;1.02;;;19.50;99.90;;;;;;5050295;28;20037;-81
2023/08/17 12:32:59;;;;;;;1.33;1.23;;;19.50;99.90;;;;;;5047584;28;20128;-80
2023/08/17 12:35:25;;;;;;;1.33;1.33;;;19.50;99.90;;;;;;5032286;28;20086;-81
2023/08/17 12:37:54;;;;;;;1.08;1.08;;;19.50;99.90;;;;;;5031903;28;20041;-80
2023/08/17 12:40:22;;;;;;;3.22;1.95;;;19.60;99.90;;;;;;5040017;28;20828;-81
2023/08/17 12:42:48;;;;;;;1.85;1.60;;;19.60;99.90;;;;;;5046515;28;20384;-82
2023/08/17 12:45:17;;;;;;;0.93;0.93;;;19.50;99.90;;;;;;5049087;28;20064;-81
2023/08/17 12:47:43;;;;;;;1.60;1.17;;;19.50;99.90;;;;;;5047239;28;20119;-82
2023/08/17 12:50:09;;;;;;;1.67;1.58;;;19.60;99.90;;;;;;5043186;28;20467;-82